sensor_id;sensor_type;location;lat;lon;timestamp;P1;durP1;ratioP1;P2;durP2;ratioP2
60704;SDS011;46545;38.014;-7.874;2023-03-01T00:01:58;4.88;;;2.65;;
60704;SDS011;46545;38.014;-7.874;2023-03-01T00:03:59;4.15;;;2.78;;
60704;SDS011;46545;38.014;-7.874;2023-03-01T00:06:00;6.30;;;2.42;;
60704;SDS011;46545;38.014;-7.874;2023-03-01T00:08:00;4.50;;;2.67;;
60704;SDS011;46545;38.014;-7.874;2023-03-01T00:10:01;4.57;;;2.40;;
60704;SDS011;46545;38.014;-7.874;2023-03-01T00:12:01;4.47;;;2.25;;
60704;SDS011;46545;38.014;-7.874;2023-03-01T00:14:02;7.18;;;2.38;;
60704;SDS011;46545;38.014;-7.874;2023-03-01T00:16:05;5.65;;;2.20;;
60704;SDS011;46545;38.014;-7.874;2023-03-01T00:18:06;12.13;;;2.67;;
60704;SDS011;46545;38.014;-7.874;2023-03-01T00:20:08;6.85;;;2.30;;
60704;SDS011;46545;38.014;-7.874;2023-03-01T00:22:10;4.18;;;2.08;;
60704;SDS011;46545;38.014;-7.874;2023-03-01T00:24:10;3.38;;;2.13;;
60704;SDS011;46545;38.014;-7.874;2023-03-01T00:26:12;4.82;;;2.58;;
60704;SDS011;46545;38.014;-7.874;2023-03-01T00:28:14;4.35;;;2.38;;
60704;SDS011;46545;38.014;-7.874;2023-03-01T00:30:15;4.38;;;2.33;;
60704;SDS011;46545;38.014;-7.874;2023-03-01T00:32:15;6.65;;;2.17;;
60704;SDS011;46545;38.014;-7.874;2023-03-01T00:34:16;5.15;;;2.78;;
60704;SDS011;46545;38.014;-7.874;2023-03-01T00:36:16;5.32;;;2.13;;
60704;SDS011;46545;38.014;-7.874;2023-03-01T00:38:17;6.82;;;3.08;;
60704;SDS011;46545;38.014;-7.874;2023-03-01T00:40:17;6.97;;;2.40;;
60704;SDS011;46545;38.014;-7.874;2023-03-01T00:42:17;8.30;;;2.53;;
60704;SDS011;46545;38.014;-7.874;2023-03-01T00:44:18;3.45;;;2.17;;
60704;SDS011;46545;38.014;-7.874;2023-03-01T00:46:20;3.63;;;2.15;;
60704;SDS011;46545;38.014;-7.874;2023-03-01T00:48:20;7.50;;;2.78;;
60704;SDS011;46545;38.014;-7.874;2023-03-01T00:50:21;8.13;;;2.72;;
60704;SDS011;46545;38.014;-7.874;2023-03-01T00:52:21;7.80;;;2.70;;
60704;SDS011;46545;38.014;-7.874;2023-03-01T00:54:22;3.60;;;1.75;;
60704;SDS011;46545;38.014;-7.874;2023-03-01T00:56:22;5.43;;;2.55;;
60704;SDS011;46545;38.014;-7.874;2023-03-01T00:58:23;6.32;;;2.10;;
60704;SDS011;46545;38.014;-7.874;2023-03-01T01:00:24;5.13;;;2.88;;
60704;SDS011;46545;38.014;-7.874;2023-03-01T01:02:27;7.18;;;2.53;;
60704;SDS011;46545;38.014;-7.874;2023-03-01T01:04:28;4.15;;;2.05;;
60704;SDS011;46545;38.014;-7.874;2023-03-01T01:06:29;9.98;;;2.90;;
60704;SDS011;46545;38.014;-7.874;2023-03-01T01:08:30;5.65;;;2.40;;
60704;SDS011;46545;38.014;-7.874;2023-03-01T01:10:32;4.22;;;2.65;;
60704;SDS011;46545;38.014;-7.874;2023-03-01T01:12:33;8.00;;;2.83;;
60704;SDS011;46545;38.014;-7.874;2023-03-01T01:14:34;14.60;;;2.67;;
60704;SDS011;46545;38.014;-7.874;2023-03-01T01:16:34;6.55;;;2.40;;
60704;SDS011;46545;38.014;-7.874;2023-03-01T01:18:35;7.68;;;2.72;;
60704;SDS011;46545;38.014;-7.874;2023-03-01T01:20:35;3.05;;;2.22;;
60704;SDS011;46545;38.014;-7.874;2023-03-01T01:22:37;4.47;;;2.20;;
60704;SDS011;46545;38.014;-7.874;2023-03-01T01:24:37;3.47;;;3.17;;
60704;SDS011;46545;38.014;-7.874;2023-03-01T01:26:38;3.67;;;2.30;;
60704;SDS011;46545;38.014;-7.874;2023-03-01T01:28:38;5.18;;;2.20;;
60704;SDS011;46545;38.014;-7.874;2023-03-01T01:30:39;7.05;;;2.78;;
60704;SDS011;46545;38.014;-7.874;2023-03-01T01:32:39;2.97;;;2.45;;
60704;SDS011;46545;38.014;-7.874;2023-03-01T01:34:40;5.78;;;2.92;;
60704;SDS011;46545;38.014;-7.874;2023-03-01T01:36:40;6.80;;;2.33;;
60704;SDS011;46545;38.014;-7.874;2023-03-01T01:38:41;4.03;;;1.98;;
60704;SDS011;46545;38.014;-7.874;2023-03-01T01:40:46;5.18;;;2.10;;
60704;SDS011;46545;38.014;-7.874;2023-03-01T01:42:46;5.32;;;2.50;;
60704;SDS011;46545;38.014;-7.874;2023-03-01T01:44:47;8.23;;;2.70;;
60704;SDS011;46545;38.014;-7.874;2023-03-01T01:47:00;3.63;;;2.20;;
60704;SDS011;46545;38.014;-7.874;2023-03-01T01:49:03;4.75;;;2.25;;
60704;SDS011;46545;38.014;-7.874;2023-03-01T01:51:06;3.95;;;1.95;;
60704;SDS011;46545;38.014;-7.874;2023-03-01T01:53:12;6.80;;;2.83;;
60704;SDS011;46545;38.014;-7.874;2023-03-01T01:55:14;5.43;;;2.05;;
60704;SDS011;46545;38.014;-7.874;2023-03-01T01:57:18;6.50;;;2.78;;
60704;SDS011;46545;38.014;-7.874;2023-03-01T01:59:19;10.60;;;2.53;;
60704;SDS011;46545;38.014;-7.874;2023-03-01T02:01:24;5.28;;;2.20;;
60704;SDS011;46545;38.014;-7.874;2023-03-01T02:03:26;3.38;;;1.85;;
60704;SDS011;46545;38.014;-7.874;2023-03-01T02:06:15;9.38;;;2.28;;
60704;SDS011;46545;38.014;-7.874;2023-03-01T02:07:50;12.30;;;3.00;;
60704;SDS011;46545;38.014;-7.874;2023-03-01T02:09:53;9.32;;;2.75;;
60704;SDS011;46545;38.014;-7.874;2023-03-01T02:11:53;5.40;;;2.60;;
60704;SDS011;46545;38.014;-7.874;2023-03-01T02:13:54;4.45;;;2.42;;
60704;SDS011;46545;38.014;-7.874;2023-03-01T02:15:55;3.55;;;1.63;;
60704;SDS011;46545;38.014;-7.874;2023-03-01T02:17:56;3.95;;;2.28;;
60704;SDS011;46545;38.014;-7.874;2023-03-01T02:22:12;4.43;;;2.20;;
60704;SDS011;46545;38.014;-7.874;2023-03-01T02:26:18;5.85;;;2.28;;
60704;SDS011;46545;38.014;-7.874;2023-03-01T02:28:30;3.78;;;2.00;;
60704;SDS011;46545;38.014;-7.874;2023-03-01T02:30:32;5.28;;;2.42;;
60704;SDS011;46545;38.014;-7.874;2023-03-01T02:32:33;2.90;;;1.88;;
60704;SDS011;46545;38.014;-7.874;2023-03-01T02:34:34;3.05;;;1.77;;
60704;SDS011;46545;38.014;-7.874;2023-03-01T02:36:36;3.88;;;2.20;;
60704;SDS011;46545;38.014;-7.874;2023-03-01T02:38:37;6.85;;;2.22;;
60704;SDS011;46545;38.014;-7.874;2023-03-01T02:40:37;4.90;;;1.50;;
60704;SDS011;46545;38.014;-7.874;2023-03-01T02:42:43;3.90;;;1.70;;
60704;SDS011;46545;38.014;-7.874;2023-03-01T02:44:45;2.70;;;1.83;;
60704;SDS011;46545;38.014;-7.874;2023-03-01T02:46:50;4.07;;;1.98;;
60704;SDS011;46545;38.014;-7.874;2023-03-01T02:48:54;2.92;;;1.70;;
60704;SDS011;46545;38.014;-7.874;2023-03-01T02:51:10;3.28;;;1.52;;
60704;SDS011;46545;38.014;-7.874;2023-03-01T02:53:16;4.97;;;1.25;;
60704;SDS011;46545;38.014;-7.874;2023-03-01T02:55:18;3.15;;;1.10;;
60704;SDS011;46545;38.014;-7.874;2023-03-01T02:57:19;2.50;;;1.48;;
60704;SDS011;46545;38.014;-7.874;2023-03-01T02:59:21;2.55;;;1.65;;
60704;SDS011;46545;38.014;-7.874;2023-03-01T03:01:23;1.80;;;1.23;;
60704;SDS011;46545;38.014;-7.874;2023-03-01T03:03:33;1.90;;;1.17;;
60704;SDS011;46545;38.014;-7.874;2023-03-01T03:05:34;2.70;;;1.58;;
60704;SDS011;46545;38.014;-7.874;2023-03-01T03:07:36;6.53;;;1.63;;
60704;SDS011;46545;38.014;-7.874;2023-03-01T03:09:37;1.88;;;1.30;;
60704;SDS011;46545;38.014;-7.874;2023-03-01T03:11:38;2.97;;;1.50;;
60704;SDS011;46545;38.014;-7.874;2023-03-01T03:13:41;4.45;;;1.33;;
60704;SDS011;46545;38.014;-7.874;2023-03-01T03:15:49;2.80;;;1.50;;
60704;SDS011;46545;38.014;-7.874;2023-03-01T03:17:50;2.78;;;1.30;;
60704;SDS011;46545;38.014;-7.874;2023-03-01T03:19:51;3.38;;;1.45;;
60704;SDS011;46545;38.014;-7.874;2023-03-01T03:21:51;3.92;;;1.60;;
60704;SDS011;46545;38.014;-7.874;2023-03-01T03:23:52;1.95;;;1.70;;
60704;SDS011;46545;38.014;-7.874;2023-03-01T03:25:53;5.05;;;2.13;;
60704;SDS011;46545;38.014;-7.874;2023-03-01T03:27:53;4.80;;;2.08;;
60704;SDS011;46545;38.014;-7.874;2023-03-01T03:29:56;3.38;;;1.95;;
60704;SDS011;46545;38.014;-7.874;2023-03-01T03:31:57;4.35;;;2.20;;
60704;SDS011;46545;38.014;-7.874;2023-03-01T03:33:57;4.88;;;1.90;;
60704;SDS011;46545;38.014;-7.874;2023-03-01T03:35:59;2.40;;;2.17;;
60704;SDS011;46545;38.014;-7.874;2023-03-01T03:38:01;4.22;;;1.88;;
60704;SDS011;46545;38.014;-7.874;2023-03-01T03:40:01;4.13;;;1.77;;
60704;SDS011;46545;38.014;-7.874;2023-03-01T03:42:02;3.33;;;1.00;;
60704;SDS011;46545;38.014;-7.874;2023-03-01T03:44:03;4.00;;;1.73;;
60704;SDS011;46545;38.014;-7.874;2023-03-01T03:46:03;1.60;;;1.10;;
60704;SDS011;46545;38.014;-7.874;2023-03-01T03:50:08;2.50;;;1.40;;
60704;SDS011;46545;38.014;-7.874;2023-03-01T03:52:09;2.10;;;1.38;;
60704;SDS011;46545;38.014;-7.874;2023-03-01T03:54:13;3.42;;;1.48;;
60704;SDS011;46545;38.014;-7.874;2023-03-01T03:56:14;3.17;;;1.35;;
60704;SDS011;46545;38.014;-7.874;2023-03-01T03:58:14;6.40;;;2.20;;
60704;SDS011;46545;38.014;-7.874;2023-03-01T04:00:15;2.15;;;1.27;;
60704;SDS011;46545;38.014;-7.874;2023-03-01T04:02:16;2.60;;;1.13;;
60704;SDS011;46545;38.014;-7.874;2023-03-01T04:04:22;2.70;;;1.63;;
60704;SDS011;46545;38.014;-7.874;2023-03-01T04:06:22;1.20;;;1.10;;
60704;SDS011;46545;38.014;-7.874;2023-03-01T04:08:23;1.35;;;1.20;;
60704;SDS011;46545;38.014;-7.874;2023-03-01T04:10:23;2.15;;;1.33;;
60704;SDS011;46545;38.014;-7.874;2023-03-01T04:12:23;2.17;;;1.38;;
60704;SDS011;46545;38.014;-7.874;2023-03-01T04:14:24;3.67;;;1.60;;
60704;SDS011;46545;38.014;-7.874;2023-03-01T04:16:24;2.78;;;1.00;;
60704;SDS011;46545;38.014;-7.874;2023-03-01T04:18:25;2.63;;;1.40;;
60704;SDS011;46545;38.014;-7.874;2023-03-01T04:20:27;2.70;;;1.35;;
60704;SDS011;46545;38.014;-7.874;2023-03-01T04:22:28;5.55;;;1.58;;
60704;SDS011;46545;38.014;-7.874;2023-03-01T04:24:29;4.07;;;1.52;;
60704;SDS011;46545;38.014;-7.874;2023-03-01T04:26:30;2.97;;;1.48;;
60704;SDS011;46545;38.014;-7.874;2023-03-01T04:28:32;2.80;;;1.70;;
60704;SDS011;46545;38.014;-7.874;2023-03-01T04:30:34;2.95;;;1.50;;
60704;SDS011;46545;38.014;-7.874;2023-03-01T04:32:35;2.00;;;1.35;;
60704;SDS011;46545;38.014;-7.874;2023-03-01T04:34:36;2.22;;;1.75;;
60704;SDS011;46545;38.014;-7.874;2023-03-01T04:36:36;7.55;;;1.60;;
60704;SDS011;46545;38.014;-7.874;2023-03-01T04:38:37;4.32;;;1.60;;
60704;SDS011;46545;38.014;-7.874;2023-03-01T04:40:38;3.25;;;1.58;;
60704;SDS011;46545;38.014;-7.874;2023-03-01T04:42:39;2.97;;;1.45;;
60704;SDS011;46545;38.014;-7.874;2023-03-01T04:44:40;5.78;;;1.77;;
60704;SDS011;46545;38.014;-7.874;2023-03-01T04:46:40;3.67;;;1.95;;
60704;SDS011;46545;38.014;-7.874;2023-03-01T04:48:41;2.30;;;1.48;;
60704;SDS011;46545;38.014;-7.874;2023-03-01T04:50:42;3.22;;;1.33;;
60704;SDS011;46545;38.014;-7.874;2023-03-01T04:52:43;3.83;;;1.33;;
60704;SDS011;46545;38.014;-7.874;2023-03-01T04:54:43;1.45;;;1.20;;
60704;SDS011;46545;38.014;-7.874;2023-03-01T04:56:44;5.53;;;1.60;;
60704;SDS011;46545;38.014;-7.874;2023-03-01T04:58:44;4.15;;;1.33;;
60704;SDS011;46545;38.014;-7.874;2023-03-01T05:00:45;5.78;;;1.70;;
60704;SDS011;46545;38.014;-7.874;2023-03-01T05:03:06;1.65;;;1.35;;
60704;SDS011;46545;38.014;-7.874;2023-03-01T05:05:06;3.22;;;1.40;;
60704;SDS011;46545;38.014;-7.874;2023-03-01T05:07:06;3.25;;;1.17;;
60704;SDS011;46545;38.014;-7.874;2023-03-01T05:09:07;1.95;;;1.45;;
60704;SDS011;46545;38.014;-7.874;2023-03-01T05:11:07;5.70;;;1.67;;
60704;SDS011;46545;38.014;-7.874;2023-03-01T05:13:11;1.42;;;1.33;;
60704;SDS011;46545;38.014;-7.874;2023-03-01T05:15:13;2.88;;;1.98;;
60704;SDS011;46545;38.014;-7.874;2023-03-01T05:17:14;3.20;;;1.92;;
60704;SDS011;46545;38.014;-7.874;2023-03-01T05:19:14;4.10;;;2.65;;
60704;SDS011;46545;38.014;-7.874;2023-03-01T05:21:22;6.47;;;2.17;;
60704;SDS011;46545;38.014;-7.874;2023-03-01T05:23:23;4.65;;;2.47;;
60704;SDS011;46545;38.014;-7.874;2023-03-01T05:25:23;6.93;;;2.78;;
60704;SDS011;46545;38.014;-7.874;2023-03-01T05:27:24;5.43;;;2.65;;
60704;SDS011;46545;38.014;-7.874;2023-03-01T05:29:25;5.60;;;2.63;;
60704;SDS011;46545;38.014;-7.874;2023-03-01T05:31:25;4.90;;;2.45;;
60704;SDS011;46545;38.014;-7.874;2023-03-01T05:33:26;4.57;;;2.83;;
60704;SDS011;46545;38.014;-7.874;2023-03-01T05:35:27;7.50;;;3.40;;
60704;SDS011;46545;38.014;-7.874;2023-03-01T05:37:29;5.35;;;3.33;;
60704;SDS011;46545;38.014;-7.874;2023-03-01T05:39:30;10.27;;;3.60;;
60704;SDS011;46545;38.014;-7.874;2023-03-01T05:41:31;8.50;;;3.75;;
60704;SDS011;46545;38.014;-7.874;2023-03-01T05:43:32;13.60;;;3.92;;
60704;SDS011;46545;38.014;-7.874;2023-03-01T05:45:36;7.00;;;3.35;;
60704;SDS011;46545;38.014;-7.874;2023-03-01T05:47:36;5.65;;;3.30;;
60704;SDS011;46545;38.014;-7.874;2023-03-01T05:49:37;9.48;;;3.67;;
60704;SDS011;46545;38.014;-7.874;2023-03-01T05:51:37;5.60;;;3.20;;
60704;SDS011;46545;38.014;-7.874;2023-03-01T05:53:38;5.65;;;3.60;;
60704;SDS011;46545;38.014;-7.874;2023-03-01T05:55:38;6.25;;;3.08;;
60704;SDS011;46545;38.014;-7.874;2023-03-01T05:57:39;7.82;;;3.33;;
60704;SDS011;46545;38.014;-7.874;2023-03-01T05:59:39;8.77;;;3.22;;
60704;SDS011;46545;38.014;-7.874;2023-03-01T06:01:40;8.73;;;3.65;;
60704;SDS011;46545;38.014;-7.874;2023-03-01T06:03:41;5.88;;;2.53;;
60704;SDS011;46545;38.014;-7.874;2023-03-01T06:05:41;5.95;;;2.85;;
60704;SDS011;46545;38.014;-7.874;2023-03-01T06:07:42;8.75;;;2.88;;
60704;SDS011;46545;38.014;-7.874;2023-03-01T06:09:42;6.10;;;2.95;;
60704;SDS011;46545;38.014;-7.874;2023-03-01T06:11:43;3.03;;;2.10;;
60704;SDS011;46545;38.014;-7.874;2023-03-01T06:13:44;6.82;;;3.10;;
60704;SDS011;46545;38.014;-7.874;2023-03-01T06:15:45;7.40;;;2.55;;
60704;SDS011;46545;38.014;-7.874;2023-03-01T06:17:45;4.00;;;2.30;;
60704;SDS011;46545;38.014;-7.874;2023-03-01T06:19:46;5.10;;;2.70;;
60704;SDS011;46545;38.014;-7.874;2023-03-01T06:21:47;4.60;;;3.38;;
60704;SDS011;46545;38.014;-7.874;2023-03-01T06:23:47;4.15;;;2.22;;
60704;SDS011;46545;38.014;-7.874;2023-03-01T06:25:48;2.65;;;2.10;;
60704;SDS011;46545;38.014;-7.874;2023-03-01T06:27:48;6.35;;;1.80;;
60704;SDS011;46545;38.014;-7.874;2023-03-01T06:29:49;4.00;;;2.15;;
60704;SDS011;46545;38.014;-7.874;2023-03-01T06:31:49;3.88;;;2.30;;
60704;SDS011;46545;38.014;-7.874;2023-03-01T06:33:50;2.72;;;1.98;;
60704;SDS011;46545;38.014;-7.874;2023-03-01T06:35:50;2.35;;;1.77;;
60704;SDS011;46545;38.014;-7.874;2023-03-01T06:37:51;3.65;;;2.05;;
60704;SDS011;46545;38.014;-7.874;2023-03-01T06:39:52;3.72;;;2.05;;
60704;SDS011;46545;38.014;-7.874;2023-03-01T06:41:52;9.30;;;2.35;;
60704;SDS011;46545;38.014;-7.874;2023-03-01T06:43:52;6.00;;;2.00;;
60704;SDS011;46545;38.014;-7.874;2023-03-01T06:45:54;6.85;;;2.45;;
60704;SDS011;46545;38.014;-7.874;2023-03-01T06:48:01;5.25;;;2.55;;
60704;SDS011;46545;38.014;-7.874;2023-03-01T06:50:02;6.75;;;1.90;;
60704;SDS011;46545;38.014;-7.874;2023-03-01T06:52:03;3.78;;;2.10;;
60704;SDS011;46545;38.014;-7.874;2023-03-01T06:54:04;4.40;;;2.70;;
60704;SDS011;46545;38.014;-7.874;2023-03-01T06:56:04;6.03;;;2.75;;
60704;SDS011;46545;38.014;-7.874;2023-03-01T06:58:05;7.75;;;3.78;;
60704;SDS011;46545;38.014;-7.874;2023-03-01T07:00:05;7.45;;;3.08;;
60704;SDS011;46545;38.014;-7.874;2023-03-01T07:02:09;5.32;;;2.30;;
60704;SDS011;46545;38.014;-7.874;2023-03-01T07:04:10;5.30;;;2.50;;
60704;SDS011;46545;38.014;-7.874;2023-03-01T07:06:11;4.38;;;2.15;;
60704;SDS011;46545;38.014;-7.874;2023-03-01T07:08:11;5.03;;;2.58;;
60704;SDS011;46545;38.014;-7.874;2023-03-01T07:10:12;4.45;;;2.38;;
60704;SDS011;46545;38.014;-7.874;2023-03-01T07:12:12;6.30;;;2.05;;
60704;SDS011;46545;38.014;-7.874;2023-03-01T07:14:13;3.83;;;2.42;;
60704;SDS011;46545;38.014;-7.874;2023-03-01T07:16:13;3.40;;;2.15;;
60704;SDS011;46545;38.014;-7.874;2023-03-01T07:18:15;8.38;;;2.05;;
60704;SDS011;46545;38.014;-7.874;2023-03-01T07:20:15;3.65;;;2.58;;
60704;SDS011;46545;38.014;-7.874;2023-03-01T07:22:16;4.43;;;2.60;;
60704;SDS011;46545;38.014;-7.874;2023-03-01T07:24:16;7.55;;;2.22;;
60704;SDS011;46545;38.014;-7.874;2023-03-01T07:26:17;4.97;;;1.95;;
60704;SDS011;46545;38.014;-7.874;2023-03-01T07:28:17;5.45;;;2.45;;
60704;SDS011;46545;38.014;-7.874;2023-03-01T07:30:18;6.45;;;1.83;;
60704;SDS011;46545;38.014;-7.874;2023-03-01T07:32:18;3.58;;;2.28;;
60704;SDS011;46545;38.014;-7.874;2023-03-01T07:34:19;3.75;;;2.25;;
60704;SDS011;46545;38.014;-7.874;2023-03-01T07:36:19;8.70;;;3.25;;
60704;SDS011;46545;38.014;-7.874;2023-03-01T07:38:20;3.80;;;2.55;;
60704;SDS011;46545;38.014;-7.874;2023-03-01T07:40:20;10.32;;;3.00;;
60704;SDS011;46545;38.014;-7.874;2023-03-01T07:42:21;5.20;;;2.58;;
60704;SDS011;46545;38.014;-7.874;2023-03-01T07:44:21;6.25;;;3.67;;
60704;SDS011;46545;38.014;-7.874;2023-03-01T07:46:22;8.27;;;4.53;;
60704;SDS011;46545;38.014;-7.874;2023-03-01T07:48:22;8.43;;;3.50;;
60704;SDS011;46545;38.014;-7.874;2023-03-01T07:50:22;10.85;;;3.92;;
60704;SDS011;46545;38.014;-7.874;2023-03-01T07:52:23;10.70;;;4.32;;
60704;SDS011;46545;38.014;-7.874;2023-03-01T07:54:24;5.68;;;3.90;;
60704;SDS011;46545;38.014;-7.874;2023-03-01T07:56:24;7.88;;;3.55;;
60704;SDS011;46545;38.014;-7.874;2023-03-01T07:58:25;6.88;;;3.42;;
60704;SDS011;46545;38.014;-7.874;2023-03-01T08:00:25;9.82;;;4.75;;
60704;SDS011;46545;38.014;-7.874;2023-03-01T08:02:25;6.45;;;3.72;;
60704;SDS011;46545;38.014;-7.874;2023-03-01T08:04:26;8.38;;;4.18;;
60704;SDS011;46545;38.014;-7.874;2023-03-01T08:06:26;6.03;;;3.35;;
60704;SDS011;46545;38.014;-7.874;2023-03-01T08:08:27;6.05;;;3.50;;
60704;SDS011;46545;38.014;-7.874;2023-03-01T08:10:27;8.27;;;3.67;;
60704;SDS011;46545;38.014;-7.874;2023-03-01T08:12:28;5.93;;;3.72;;
60704;SDS011;46545;38.014;-7.874;2023-03-01T08:14:28;6.30;;;3.17;;
60704;SDS011;46545;38.014;-7.874;2023-03-01T08:16:29;7.25;;;3.65;;
60704;SDS011;46545;38.014;-7.874;2023-03-01T08:18:29;7.32;;;3.90;;
60704;SDS011;46545;38.014;-7.874;2023-03-01T08:20:30;5.78;;;3.50;;
60704;SDS011;46545;38.014;-7.874;2023-03-01T08:22:30;5.55;;;3.47;;
60704;SDS011;46545;38.014;-7.874;2023-03-01T08:24:31;4.43;;;3.17;;
60704;SDS011;46545;38.014;-7.874;2023-03-01T08:26:32;8.77;;;3.55;;
60704;SDS011;46545;38.014;-7.874;2023-03-01T08:28:32;7.43;;;3.53;;
60704;SDS011;46545;38.014;-7.874;2023-03-01T08:30:33;5.13;;;3.08;;
60704;SDS011;46545;38.014;-7.874;2023-03-01T08:32:37;6.22;;;3.30;;
60704;SDS011;46545;38.014;-7.874;2023-03-01T08:34:48;3.55;;;2.88;;
60704;SDS011;46545;38.014;-7.874;2023-03-01T08:36:49;5.00;;;2.78;;
60704;SDS011;46545;38.014;-7.874;2023-03-01T08:38:51;4.43;;;2.90;;
60704;SDS011;46545;38.014;-7.874;2023-03-01T08:40:52;5.45;;;2.72;;
60704;SDS011;46545;38.014;-7.874;2023-03-01T08:42:52;7.85;;;2.83;;
60704;SDS011;46545;38.014;-7.874;2023-03-01T08:44:53;4.95;;;3.67;;
60704;SDS011;46545;38.014;-7.874;2023-03-01T08:46:53;6.15;;;2.88;;
60704;SDS011;46545;38.014;-7.874;2023-03-01T08:48:55;5.35;;;2.83;;
60704;SDS011;46545;38.014;-7.874;2023-03-01T08:50:56;5.60;;;2.35;;
60704;SDS011;46545;38.014;-7.874;2023-03-01T08:52:56;2.53;;;2.00;;
60704;SDS011;46545;38.014;-7.874;2023-03-01T08:54:57;5.95;;;2.10;;
60704;SDS011;46545;38.014;-7.874;2023-03-01T08:56:57;6.82;;;2.10;;
60704;SDS011;46545;38.014;-7.874;2023-03-01T08:58:59;2.22;;;1.95;;
60704;SDS011;46545;38.014;-7.874;2023-03-01T09:00:59;5.47;;;2.08;;
60704;SDS011;46545;38.014;-7.874;2023-03-01T09:03:00;2.80;;;1.52;;
60704;SDS011;46545;38.014;-7.874;2023-03-01T09:05:01;2.28;;;1.75;;
60704;SDS011;46545;38.014;-7.874;2023-03-01T09:07:01;2.08;;;1.77;;
60704;SDS011;46545;38.014;-7.874;2023-03-01T09:09:03;5.70;;;2.15;;
60704;SDS011;46545;38.014;-7.874;2023-03-01T09:11:04;2.33;;;1.70;;
60704;SDS011;46545;38.014;-7.874;2023-03-01T09:13:05;4.18;;;2.20;;
60704;SDS011;46545;38.014;-7.874;2023-03-01T09:15:05;2.25;;;1.60;;
60704;SDS011;46545;38.014;-7.874;2023-03-01T09:17:06;6.20;;;2.20;;
60704;SDS011;46545;38.014;-7.874;2023-03-01T09:19:06;2.33;;;1.73;;
60704;SDS011;46545;38.014;-7.874;2023-03-01T09:21:14;2.25;;;1.92;;
60704;SDS011;46545;38.014;-7.874;2023-03-01T09:23:14;4.43;;;2.00;;
60704;SDS011;46545;38.014;-7.874;2023-03-01T09:25:15;1.95;;;1.38;;
60704;SDS011;46545;38.014;-7.874;2023-03-01T09:27:15;2.63;;;1.90;;
60704;SDS011;46545;38.014;-7.874;2023-03-01T09:29:18;3.58;;;1.98;;
60704;SDS011;46545;38.014;-7.874;2023-03-01T09:31:19;3.40;;;2.00;;
60704;SDS011;46545;38.014;-7.874;2023-03-01T09:33:20;4.93;;;1.45;;
60704;SDS011;46545;38.014;-7.874;2023-03-01T09:35:20;3.40;;;2.00;;
60704;SDS011;46545;38.014;-7.874;2023-03-01T09:37:22;4.80;;;1.65;;
60704;SDS011;46545;38.014;-7.874;2023-03-01T09:39:23;2.50;;;1.77;;
60704;SDS011;46545;38.014;-7.874;2023-03-01T09:43:47;3.67;;;1.85;;
60704;SDS011;46545;38.014;-7.874;2023-03-01T09:45:48;2.72;;;1.15;;
60704;SDS011;46545;38.014;-7.874;2023-03-01T09:47:50;2.72;;;1.30;;
60704;SDS011;46545;38.014;-7.874;2023-03-01T09:50:24;2.83;;;1.30;;
60704;SDS011;46545;38.014;-7.874;2023-03-01T09:54:19;1.50;;;1.27;;
60704;SDS011;46545;38.014;-7.874;2023-03-01T09:56:39;2.20;;;1.88;;
60704;SDS011;46545;38.014;-7.874;2023-03-01T09:58:45;5.18;;;1.50;;
60704;SDS011;46545;38.014;-7.874;2023-03-01T10:00:47;2.95;;;1.60;;
60704;SDS011;46545;38.014;-7.874;2023-03-01T10:09:42;4.03;;;2.03;;
60704;SDS011;46545;38.014;-7.874;2023-03-01T10:11:48;3.92;;;1.50;;
60704;SDS011;46545;38.014;-7.874;2023-03-01T10:15:56;1.90;;;1.55;;
60704;SDS011;46545;38.014;-7.874;2023-03-01T10:18:01;4.15;;;1.30;;
60704;SDS011;46545;38.014;-7.874;2023-03-01T10:20:16;3.42;;;1.50;;
60704;SDS011;46545;38.014;-7.874;2023-03-01T10:22:29;3.78;;;1.77;;
60704;SDS011;46545;38.014;-7.874;2023-03-01T10:28:48;5.10;;;1.40;;
60704;SDS011;46545;38.014;-7.874;2023-03-01T10:30:50;3.22;;;2.03;;
60704;SDS011;46545;38.014;-7.874;2023-03-01T10:32:51;2.00;;;1.23;;
60704;SDS011;46545;38.014;-7.874;2023-03-01T10:34:53;2.22;;;1.58;;
60704;SDS011;46545;38.014;-7.874;2023-03-01T10:36:55;2.55;;;1.10;;
60704;SDS011;46545;38.014;-7.874;2023-03-01T10:38:59;3.63;;;1.70;;
60704;SDS011;46545;38.014;-7.874;2023-03-01T10:41:10;2.38;;;1.55;;
60704;SDS011;46545;38.014;-7.874;2023-03-01T10:43:11;3.20;;;1.83;;
60704;SDS011;46545;38.014;-7.874;2023-03-01T10:49:18;2.38;;;1.40;;
60704;SDS011;46545;38.014;-7.874;2023-03-01T10:51:18;2.08;;;1.45;;
60704;SDS011;46545;38.014;-7.874;2023-03-01T10:53:27;2.28;;;1.08;;
60704;SDS011;46545;38.014;-7.874;2023-03-01T10:55:36;4.50;;;1.50;;
60704;SDS011;46545;38.014;-7.874;2023-03-01T10:57:38;2.40;;;2.05;;
60704;SDS011;46545;38.014;-7.874;2023-03-01T10:59:39;2.13;;;1.25;;
60704;SDS011;46545;38.014;-7.874;2023-03-01T11:01:39;1.63;;;1.42;;
60704;SDS011;46545;38.014;-7.874;2023-03-01T11:03:40;2.00;;;1.20;;
60704;SDS011;46545;38.014;-7.874;2023-03-01T11:05:50;5.82;;;1.42;;
60704;SDS011;46545;38.014;-7.874;2023-03-01T11:07:52;2.25;;;1.77;;
60704;SDS011;46545;38.014;-7.874;2023-03-01T11:09:53;1.65;;;1.08;;
60704;SDS011;46545;38.014;-7.874;2023-03-01T11:11:55;2.95;;;1.20;;
60704;SDS011;46545;38.014;-7.874;2023-03-01T11:16:15;3.95;;;2.08;;
60704;SDS011;46545;38.014;-7.874;2023-03-01T11:18:22;3.17;;;1.50;;
60704;SDS011;46545;38.014;-7.874;2023-03-01T11:20:30;2.65;;;1.55;;
60704;SDS011;46545;38.014;-7.874;2023-03-01T11:22:31;3.72;;;1.67;;
60704;SDS011;46545;38.014;-7.874;2023-03-01T11:26:44;9.90;;;1.67;;
60704;SDS011;46545;38.014;-7.874;2023-03-01T11:28:50;1.58;;;1.02;;
60704;SDS011;46545;38.014;-7.874;2023-03-01T11:30:59;3.17;;;2.22;;
60704;SDS011;46545;38.014;-7.874;2023-03-01T11:33:04;1.65;;;1.33;;
60704;SDS011;46545;38.014;-7.874;2023-03-01T11:35:17;2.45;;;1.10;;
60704;SDS011;46545;38.014;-7.874;2023-03-01T11:37:24;2.28;;;1.42;;
60704;SDS011;46545;38.014;-7.874;2023-03-01T11:41:30;2.15;;;1.60;;
60704;SDS011;46545;38.014;-7.874;2023-03-01T11:45:52;2.03;;;1.42;;
60704;SDS011;46545;38.014;-7.874;2023-03-01T11:47:57;4.20;;;1.40;;
60704;SDS011;46545;38.014;-7.874;2023-03-01T11:59:12;3.10;;;1.35;;
60704;SDS011;46545;38.014;-7.874;2023-03-01T12:05:20;2.30;;;1.60;;
60704;SDS011;46545;38.014;-7.874;2023-03-01T12:09:38;6.28;;;1.77;;
60704;SDS011;46545;38.014;-7.874;2023-03-01T12:29:38;4.65;;;2.55;;
60704;SDS011;46545;38.014;-7.874;2023-03-01T12:33:48;4.20;;;2.42;;
60704;SDS011;46545;38.014;-7.874;2023-03-01T12:36:05;4.40;;;2.40;;
60704;SDS011;46545;38.014;-7.874;2023-03-01T12:44:45;3.55;;;1.60;;
60704;SDS011;46545;38.014;-7.874;2023-03-01T12:49:10;2.65;;;1.50;;
60704;SDS011;46545;38.014;-7.874;2023-03-01T12:51:17;1.85;;;1.02;;
60704;SDS011;46545;38.014;-7.874;2023-03-01T12:53:26;1.85;;;1.00;;
60704;SDS011;46545;38.014;-7.874;2023-03-01T12:55:33;5.93;;;1.73;;
60704;SDS011;46545;38.014;-7.874;2023-03-01T12:57:39;1.85;;;1.58;;
60704;SDS011;46545;38.014;-7.874;2023-03-01T13:08:29;1.40;;;1.30;;
60704;SDS011;46545;38.014;-7.874;2023-03-01T13:10:34;4.35;;;1.48;;
60704;SDS011;46545;38.014;-7.874;2023-03-01T13:12:46;2.83;;;1.40;;
60704;SDS011;46545;38.014;-7.874;2023-03-01T13:14:47;2.22;;;1.73;;
60704;SDS011;46545;38.014;-7.874;2023-03-01T13:16:48;2.42;;;1.55;;
60704;SDS011;46545;38.014;-7.874;2023-03-01T13:18:49;3.75;;;1.38;;
60704;SDS011;46545;38.014;-7.874;2023-03-01T13:20:50;3.30;;;2.20;;
60704;SDS011;46545;38.014;-7.874;2023-03-01T13:23:01;3.03;;;1.73;;
60704;SDS011;46545;38.014;-7.874;2023-03-01T13:25:11;2.65;;;1.42;;
60704;SDS011;46545;38.014;-7.874;2023-03-01T13:29:26;3.00;;;1.20;;
60704;SDS011;46545;38.014;-7.874;2023-03-01T13:35:41;4.53;;;1.67;;
60704;SDS011;46545;38.014;-7.874;2023-03-01T13:37:42;2.95;;;1.45;;
60704;SDS011;46545;38.014;-7.874;2023-03-01T13:39:43;3.63;;;1.20;;
60704;SDS011;46545;38.014;-7.874;2023-03-01T13:43:44;1.85;;;1.20;;